sensor_id;sensor_type;location;lat;lon;timestamp;temperature;humidity
80701;DHT22;71609;42.630;23.380;2023-07-20T00:01:52;29.10;52.80
80701;DHT22;71609;42.630;23.380;2023-07-20T00:04:18;29.10;52.80
80701;DHT22;71609;42.630;23.380;2023-07-20T00:06:44;29.10;52.70
80701;DHT22;71609;42.630;23.380;2023-07-20T00:09:10;29.10;52.70
80701;DHT22;71609;42.630;23.380;2023-07-20T00:11:37;29.10;52.80
80701;DHT22;71609;42.630;23.380;2023-07-20T00:14:04;29.10;52.70
80701;DHT22;71609;42.630;23.380;2023-07-20T00:16:30;29.10;52.70
80701;DHT22;71609;42.630;23.380;2023-07-20T00:18:56;29.10;52.60
80701;DHT22;71609;42.630;23.380;2023-07-20T00:21:21;29.10;52.70
80701;DHT22;71609;42.630;23.380;2023-07-20T00:23:47;29.10;52.70
80701;DHT22;71609;42.630;23.380;2023-07-20T00:26:13;29.10;52.70
80701;DHT22;71609;42.630;23.380;2023-07-20T00:28:38;29.10;52.70
80701;DHT22;71609;42.630;23.380;2023-07-20T00:31:04;29.10;52.70
80701;DHT22;71609;42.630;23.380;2023-07-20T00:33:30;29.10;52.80
80701;DHT22;71609;42.630;23.380;2023-07-20T00:35:55;29.10;53.90
80701;DHT22;71609;42.630;23.380;2023-07-20T00:38:22;29.10;52.90
80701;DHT22;71609;42.630;23.380;2023-07-20T00:40:47;29.10;53.00
80701;DHT22;71609;42.630;23.380;2023-07-20T00:43:16;29.10;53.00
80701;DHT22;71609;42.630;23.380;2023-07-20T00:45:42;29.10;52.90
80701;DHT22;71609;42.630;23.380;2023-07-20T00:48:09;29.10;53.00
80701;DHT22;71609;42.630;23.380;2023-07-20T00:50:35;29.10;53.00
80701;DHT22;71609;42.630;23.380;2023-07-20T00:53:03;29.10;53.00
80701;DHT22;71609;42.630;23.380;2023-07-20T00:55:30;29.10;53.00
80701;DHT22;71609;42.630;23.380;2023-07-20T00:57:57;29.00;52.90
80701;DHT22;71609;42.630;23.380;2023-07-20T01:00:23;29.10;53.10
80701;DHT22;71609;42.630;23.380;2023-07-20T01:02:48;29.00;53.10
80701;DHT22;71609;42.630;23.380;2023-07-20T01:05:14;29.10;53.00
80701;DHT22;71609;42.630;23.380;2023-07-20T01:10:33;29.00;53.10
80701;DHT22;71609;42.630;23.380;2023-07-20T01:13:00;29.10;53.10
80701;DHT22;71609;42.630;23.380;2023-07-20T01:15:27;29.00;53.10
80701;DHT22;71609;42.630;23.380;2023-07-20T01:17:53;29.00;53.10
80701;DHT22;71609;42.630;23.380;2023-07-20T01:20:19;29.00;53.10
80701;DHT22;71609;42.630;23.380;2023-07-20T01:23:05;29.00;53.10
80701;DHT22;71609;42.630;23.380;2023-07-20T01:31:33;29.00;53.10
80701;DHT22;71609;42.630;23.380;2023-07-20T01:34:01;29.00;53.30
80701;DHT22;71609;42.630;23.380;2023-07-20T01:36:30;29.00;53.30
80701;DHT22;71609;42.630;23.380;2023-07-20T01:38:59;29.00;53.30
80701;DHT22;71609;42.630;23.380;2023-07-20T01:41:24;29.00;53.30
80701;DHT22;71609;42.630;23.380;2023-07-20T01:43:50;29.00;53.30
80701;DHT22;71609;42.630;23.380;2023-07-20T01:46:16;29.00;53.30
80701;DHT22;71609;42.630;23.380;2023-07-20T01:48:41;29.00;53.30
80701;DHT22;71609;42.630;23.380;2023-07-20T01:51:07;29.00;53.40
80701;DHT22;71609;42.630;23.380;2023-07-20T01:53:33;29.00;53.40
80701;DHT22;71609;42.630;23.380;2023-07-20T01:55:59;29.00;53.40
80701;DHT22;71609;42.630;23.380;2023-07-20T01:58:25;29.00;53.30
80701;DHT22;71609;42.630;23.380;2023-07-20T02:00:50;29.00;53.40
80701;DHT22;71609;42.630;23.380;2023-07-20T02:03:16;29.00;53.40
80701;DHT22;71609;42.630;23.380;2023-07-20T02:05:42;29.00;53.40
80701;DHT22;71609;42.630;23.380;2023-07-20T02:08:08;29.00;53.40
80701;DHT22;71609;42.630;23.380;2023-07-20T02:10:35;28.90;53.40
80701;DHT22;71609;42.630;23.380;2023-07-20T02:13:00;28.90;53.40
80701;DHT22;71609;42.630;23.380;2023-07-20T02:15:26;28.90;53.40
80701;DHT22;71609;42.630;23.380;2023-07-20T02:17:53;28.90;53.40
80701;DHT22;71609;42.630;23.380;2023-07-20T02:20:18;28.90;53.40
80701;DHT22;71609;42.630;23.380;2023-07-20T02:22:45;28.90;53.40
80701;DHT22;71609;42.630;23.380;2023-07-20T02:25:11;28.90;53.40
80701;DHT22;71609;42.630;23.380;2023-07-20T02:27:37;28.90;53.40
80701;DHT22;71609;42.630;23.380;2023-07-20T02:30:03;28.90;53.40
80701;DHT22;71609;42.630;23.380;2023-07-20T02:32:30;28.90;53.40
80701;DHT22;71609;42.630;23.380;2023-07-20T02:34:56;28.90;53.40
80701;DHT22;71609;42.630;23.380;2023-07-20T02:37:21;28.90;53.40
80701;DHT22;71609;42.630;23.380;2023-07-20T02:39:47;28.90;53.50
80701;DHT22;71609;42.630;23.380;2023-07-20T02:42:13;28.90;53.50
80701;DHT22;71609;42.630;23.380;2023-07-20T02:44:39;28.90;53.50
80701;DHT22;71609;42.630;23.380;2023-07-20T02:47:05;28.90;53.50
80701;DHT22;71609;42.630;23.380;2023-07-20T02:49:31;28.90;53.50
80701;DHT22;71609;42.630;23.380;2023-07-20T02:51:57;28.90;53.50
80701;DHT22;71609;42.630;23.380;2023-07-20T02:54:23;28.90;53.60
80701;DHT22;71609;42.630;23.380;2023-07-20T02:56:48;28.90;53.70
80701;DHT22;71609;42.630;23.380;2023-07-20T02:59:14;28.90;53.60
80701;DHT22;71609;42.630;23.380;2023-07-20T03:01:40;28.80;53.50
80701;DHT22;71609;42.630;23.380;2023-07-20T03:04:08;28.90;53.70
80701;DHT22;71609;42.630;23.380;2023-07-20T03:06:35;28.80;53.60
80701;DHT22;71609;42.630;23.380;2023-07-20T03:09:01;28.90;53.70
80701;DHT22;71609;42.630;23.380;2023-07-20T03:11:27;28.80;53.60
80701;DHT22;71609;42.630;23.380;2023-07-20T03:13:53;28.80;53.60
80701;DHT22;71609;42.630;23.380;2023-07-20T03:16:20;28.80;53.60
80701;DHT22;71609;42.630;23.380;2023-07-20T03:18:46;28.90;53.70
80701;DHT22;71609;42.630;23.380;2023-07-20T03:21:11;28.80;53.60
80701;DHT22;71609;42.630;23.380;2023-07-20T03:23:38;28.80;53.60
80701;DHT22;71609;42.630;23.380;2023-07-20T03:26:04;28.80;53.60
80701;DHT22;71609;42.630;23.380;2023-07-20T03:28:30;28.80;53.70
80701;DHT22;71609;42.630;23.380;2023-07-20T03:30:56;28.80;53.70
80701;DHT22;71609;42.630;23.380;2023-07-20T03:33:26;28.80;53.70
80701;DHT22;71609;42.630;23.380;2023-07-20T03:35:52;28.90;53.70
80701;DHT22;71609;42.630;23.380;2023-07-20T03:38:18;28.80;53.60
80701;DHT22;71609;42.630;23.380;2023-07-20T03:40:55;28.80;53.70
80701;DHT22;71609;42.630;23.380;2023-07-20T03:43:22;28.80;53.60
80701;DHT22;71609;42.630;23.380;2023-07-20T03:45:48;28.80;53.60
80701;DHT22;71609;42.630;23.380;2023-07-20T03:48:20;28.80;53.50
80701;DHT22;71609;42.630;23.380;2023-07-20T03:50:47;28.80;53.60
80701;DHT22;71609;42.630;23.380;2023-07-20T03:53:13;28.80;53.40
80701;DHT22;71609;42.630;23.380;2023-07-20T03:55:41;28.80;53.30
80701;DHT22;71609;42.630;23.380;2023-07-20T03:58:07;28.80;53.30
80701;DHT22;71609;42.630;23.380;2023-07-20T04:00:33;28.80;53.30
80701;DHT22;71609;42.630;23.380;2023-07-20T04:02:59;28.80;53.30
80701;DHT22;71609;42.630;23.380;2023-07-20T04:05:25;28.80;53.30
80701;DHT22;71609;42.630;23.380;2023-07-20T04:07:51;28.80;53.30
80701;DHT22;71609;42.630;23.380;2023-07-20T04:10:18;28.90;53.40
80701;DHT22;71609;42.630;23.380;2023-07-20T04:12:44;28.90;53.40
80701;DHT22;71609;42.630;23.380;2023-07-20T04:15:10;28.90;53.20
80701;DHT22;71609;42.630;23.380;2023-07-20T04:17:36;28.80;52.90
80701;DHT22;71609;42.630;23.380;2023-07-20T04:20:02;28.80;53.00
80701;DHT22;71609;42.630;23.380;2023-07-20T04:22:28;28.90;52.80
80701;DHT22;71609;42.630;23.380;2023-07-20T04:24:54;28.90;52.80
80701;DHT22;71609;42.630;23.380;2023-07-20T04:27:19;28.90;52.60
80701;DHT22;71609;42.630;23.380;2023-07-20T04:29:45;28.90;52.50
80701;DHT22;71609;42.630;23.380;2023-07-20T04:32:11;28.90;52.30
80701;DHT22;71609;42.630;23.380;2023-07-20T04:34:36;28.90;52.30
80701;DHT22;71609;42.630;23.380;2023-07-20T04:37:06;28.90;52.10
80701;DHT22;71609;42.630;23.380;2023-07-20T04:39:31;28.90;52.10
80701;DHT22;71609;42.630;23.380;2023-07-20T04:41:57;28.90;51.90
80701;DHT22;71609;42.630;23.380;2023-07-20T04:44:23;29.00;51.80
80701;DHT22;71609;42.630;23.380;2023-07-20T04:46:49;29.00;51.30
80701;DHT22;71609;42.630;23.380;2023-07-20T04:49:14;29.00;51.10
80701;DHT22;71609;42.630;23.380;2023-07-20T04:51:40;29.00;50.60
80701;DHT22;71609;42.630;23.380;2023-07-20T04:54:06;29.00;50.40
80701;DHT22;71609;42.630;23.380;2023-07-20T04:56:32;29.00;50.30
80701;DHT22;71609;42.630;23.380;2023-07-20T04:58:58;29.10;50.20
80701;DHT22;71609;42.630;23.380;2023-07-20T05:01:24;29.10;50.10
80701;DHT22;71609;42.630;23.380;2023-07-20T05:03:50;29.10;50.00
80701;DHT22;71609;42.630;23.380;2023-07-20T05:06:15;29.10;50.00
80701;DHT22;71609;42.630;23.380;2023-07-20T05:08:41;29.10;49.90
80701;DHT22;71609;42.630;23.380;2023-07-20T05:11:07;29.10;49.90
80701;DHT22;71609;42.630;23.380;2023-07-20T05:13:33;29.20;50.10
80701;DHT22;71609;42.630;23.380;2023-07-20T05:15:59;29.20;50.20
80701;DHT22;71609;42.630;23.380;2023-07-20T05:18:24;29.20;50.10
80701;DHT22;71609;42.630;23.380;2023-07-20T05:20:51;29.30;50.10
80701;DHT22;71609;42.630;23.380;2023-07-20T05:23:19;29.20;49.90
80701;DHT22;71609;42.630;23.380;2023-07-20T05:25:45;29.30;49.80
80701;DHT22;71609;42.630;23.380;2023-07-20T05:28:11;29.40;49.90
80701;DHT22;71609;42.630;23.380;2023-07-20T05:30:37;29.40;49.80
80701;DHT22;71609;42.630;23.380;2023-07-20T05:33:21;29.40;49.60
80701;DHT22;71609;42.630;23.380;2023-07-20T05:35:47;29.40;49.50
80701;DHT22;71609;42.630;23.380;2023-07-20T05:38:13;29.40;49.60
80701;DHT22;71609;42.630;23.380;2023-07-20T05:40:43;29.50;49.50
80701;DHT22;71609;42.630;23.380;2023-07-20T05:43:10;29.50;49.50
80701;DHT22;71609;42.630;23.380;2023-07-20T05:45:36;29.60;49.50
80701;DHT22;71609;42.630;23.380;2023-07-20T05:48:02;29.60;49.30
80701;DHT22;71609;42.630;23.380;2023-07-20T05:50:28;29.60;49.20
80701;DHT22;71609;42.630;23.380;2023-07-20T05:52:54;29.70;49.30
80701;DHT22;71609;42.630;23.380;2023-07-20T05:55:20;29.70;49.10
80701;DHT22;71609;42.630;23.380;2023-07-20T05:57:46;29.80;49.20
80701;DHT22;71609;42.630;23.380;2023-07-20T06:00:13;29.80;49.00
80701;DHT22;71609;42.630;23.380;2023-07-20T06:02:39;29.80;48.90
80701;DHT22;71609;42.630;23.380;2023-07-20T06:05:06;29.90;48.90
80701;DHT22;71609;42.630;23.380;2023-07-20T06:07:38;29.90;48.90
80701;DHT22;71609;42.630;23.380;2023-07-20T06:10:05;29.90;48.70
80701;DHT22;71609;42.630;23.380;2023-07-20T06:12:34;30.00;48.50
80701;DHT22;71609;42.630;23.380;2023-07-20T06:15:03;30.00;48.50
80701;DHT22;71609;42.630;23.380;2023-07-20T06:17:29;30.10;48.40
80701;DHT22;71609;42.630;23.380;2023-07-20T06:19:55;30.10;48.20
80701;DHT22;71609;42.630;23.380;2023-07-20T06:22:21;30.20;48.20
80701;DHT22;71609;42.630;23.380;2023-07-20T06:24:46;30.20;48.00
80701;DHT22;71609;42.630;23.380;2023-07-20T06:27:12;30.30;47.80
80701;DHT22;71609;42.630;23.380;2023-07-20T06:29:38;30.30;47.70
80701;DHT22;71609;42.630;23.380;2023-07-20T06:32:04;30.40;47.70
80701;DHT22;71609;42.630;23.380;2023-07-20T06:34:30;30.40;47.60
80701;DHT22;71609;42.630;23.380;2023-07-20T06:36:56;30.40;47.40
80701;DHT22;71609;42.630;23.380;2023-07-20T06:39:22;30.50;47.30
80701;DHT22;71609;42.630;23.380;2023-07-20T06:41:48;30.60;47.30
80701;DHT22;71609;42.630;23.380;2023-07-20T06:44:13;30.60;47.20
80701;DHT22;71609;42.630;23.380;2023-07-20T06:46:39;30.60;47.00
80701;DHT22;71609;42.630;23.380;2023-07-20T06:49:06;30.60;46.90
80701;DHT22;71609;42.630;23.380;2023-07-20T06:51:34;30.70;46.70
80701;DHT22;71609;42.630;23.380;2023-07-20T06:54:00;30.70;46.60
80701;DHT22;71609;42.630;23.380;2023-07-20T06:56:26;30.80;46.60
80701;DHT22;71609;42.630;23.380;2023-07-20T06:58:52;30.80;46.50
80701;DHT22;71609;42.630;23.380;2023-07-20T07:01:18;30.90;46.30
80701;DHT22;71609;42.630;23.380;2023-07-20T07:03:44;30.90;46.20
80701;DHT22;71609;42.630;23.380;2023-07-20T07:06:10;30.90;46.20
80701;DHT22;71609;42.630;23.380;2023-07-20T07:08:36;31.00;46.10
80701;DHT22;71609;42.630;23.380;2023-07-20T07:11:01;31.00;45.90
80701;DHT22;71609;42.630;23.380;2023-07-20T07:13:27;31.10;46.00
80701;DHT22;71609;42.630;23.380;2023-07-20T07:15:53;31.10;46.00
80701;DHT22;71609;42.630;23.380;2023-07-20T07:18:18;31.10;45.80
80701;DHT22;71609;42.630;23.380;2023-07-20T07:20:53;31.10;45.90
80701;DHT22;71609;42.630;23.380;2023-07-20T07:23:19;31.10;45.90
80701;DHT22;71609;42.630;23.380;2023-07-20T07:25:45;31.10;46.00
80701;DHT22;71609;42.630;23.380;2023-07-20T07:28:11;31.10;45.90
80701;DHT22;71609;42.630;23.380;2023-07-20T07:30:37;31.20;45.90
80701;DHT22;71609;42.630;23.380;2023-07-20T07:33:03;31.20;45.80
80701;DHT22;71609;42.630;23.380;2023-07-20T07:35:28;31.20;46.90
80701;DHT22;71609;42.630;23.380;2023-07-20T07:37:54;31.30;45.90
80701;DHT22;71609;42.630;23.380;2023-07-20T07:40:19;31.30;45.80
80701;DHT22;71609;42.630;23.380;2023-07-20T07:42:45;31.30;45.60
80701;DHT22;71609;42.630;23.380;2023-07-20T07:45:11;31.40;45.40
80701;DHT22;71609;42.630;23.380;2023-07-20T07:47:37;31.40;45.20
80701;DHT22;71609;42.630;23.380;2023-07-20T07:50:03;31.50;45.40
80701;DHT22;71609;42.630;23.380;2023-07-20T07:52:28;31.50;45.50
80701;DHT22;71609;42.630;23.380;2023-07-20T07:54:54;31.50;45.30
80701;DHT22;71609;42.630;23.380;2023-07-20T07:57:19;31.60;45.30
80701;DHT22;71609;42.630;23.380;2023-07-20T07:59:45;31.60;45.20
80701;DHT22;71609;42.630;23.380;2023-07-20T08:02:11;31.60;45.30
80701;DHT22;71609;42.630;23.380;2023-07-20T08:04:36;31.70;45.20
80701;DHT22;71609;42.630;23.380;2023-07-20T08:07:04;31.70;45.00
80701;DHT22;71609;42.630;23.380;2023-07-20T08:09:29;31.70;44.70
80701;DHT22;71609;42.630;23.380;2023-07-20T08:11:55;31.80;44.80
80701;DHT22;71609;42.630;23.380;2023-07-20T08:14:21;31.80;45.00
80701;DHT22;71609;42.630;23.380;2023-07-20T08:16:46;31.80;44.70
80701;DHT22;71609;42.630;23.380;2023-07-20T08:19:12;31.80;44.60
80701;DHT22;71609;42.630;23.380;2023-07-20T08:21:38;31.80;44.40
80701;DHT22;71609;42.630;23.380;2023-07-20T08:24:04;31.90;44.60
80701;DHT22;71609;42.630;23.380;2023-07-20T08:26:29;31.90;44.60
80701;DHT22;71609;42.630;23.380;2023-07-20T08:28:55;32.00;44.60
80701;DHT22;71609;42.630;23.380;2023-07-20T08:31:21;32.00;44.30
80701;DHT22;71609;42.630;23.380;2023-07-20T08:33:47;32.00;44.80
80701;DHT22;71609;42.630;23.380;2023-07-20T08:36:14;32.00;44.40
80701;DHT22;71609;42.630;23.380;2023-07-20T08:38:39;32.00;44.30
80701;DHT22;71609;42.630;23.380;2023-07-20T08:41:05;32.10;44.30
80701;DHT22;71609;42.630;23.380;2023-07-20T08:43:31;32.10;44.40
80701;DHT22;71609;42.630;23.380;2023-07-20T08:45:59;32.10;44.30
80701;DHT22;71609;42.630;23.380;2023-07-20T08:48:27;32.10;44.30
80701;DHT22;71609;42.630;23.380;2023-07-20T08:50:53;32.10;44.30
80701;DHT22;71609;42.630;23.380;2023-07-20T08:53:20;32.20;44.20
80701;DHT22;71609;42.630;23.380;2023-07-20T08:55:46;32.20;44.20
80701;DHT22;71609;42.630;23.380;2023-07-20T08:58:14;32.20;44.10
80701;DHT22;71609;42.630;23.380;2023-07-20T09:00:41;32.20;44.10
80701;DHT22;71609;42.630;23.380;2023-07-20T09:03:07;32.30;44.10
80701;DHT22;71609;42.630;23.380;2023-07-20T09:05:34;32.30;44.10
80701;DHT22;71609;42.630;23.380;2023-07-20T09:08:01;32.30;44.10
80701;DHT22;71609;42.630;23.380;2023-07-20T09:10:29;32.30;44.10
80701;DHT22;71609;42.630;23.380;2023-07-20T09:12:54;32.30;44.00
80701;DHT22;71609;42.630;23.380;2023-07-20T09:15:22;32.30;44.10
80701;DHT22;71609;42.630;23.380;2023-07-20T09:17:49;32.30;44.00
80701;DHT22;71609;42.630;23.380;2023-07-20T09:20:19;32.30;44.00
80701;DHT22;71609;42.630;23.380;2023-07-20T09:22:45;32.30;44.00
80701;DHT22;71609;42.630;23.380;2023-07-20T09:25:15;32.30;43.80
80701;DHT22;71609;42.630;23.380;2023-07-20T09:27:46;32.40;43.80
80701;DHT22;71609;42.630;23.380;2023-07-20T09:30:13;32.40;43.90
80701;DHT22;71609;42.630;23.380;2023-07-20T09:32:46;32.30;43.90
80701;DHT22;71609;42.630;23.380;2023-07-20T09:35:14;32.40;44.00
80701;DHT22;71609;42.630;23.380;2023-07-20T09:37:45;32.30;44.00
80701;DHT22;71609;42.630;23.380;2023-07-20T09:40:15;32.40;44.00
80701;DHT22;71609;42.630;23.380;2023-07-20T09:42:41;32.40;44.10
80701;DHT22;71609;42.630;23.380;2023-07-20T09:45:08;32.40;44.00
80701;DHT22;71609;42.630;23.380;2023-07-20T09:47:36;32.40;44.00
80701;DHT22;71609;42.630;23.380;2023-07-20T09:50:02;32.40;44.00
80701;DHT22;71609;42.630;23.380;2023-07-20T09:52:29;32.40;44.00
80701;DHT22;71609;42.630;23.380;2023-07-20T09:54:55;32.50;44.00
80701;DHT22;71609;42.630;23.380;2023-07-20T09:57:22;32.50;44.10
80701;DHT22;71609;42.630;23.380;2023-07-20T09:59:47;32.40;44.00
80701;DHT22;71609;42.630;23.380;2023-07-20T10:02:33;32.50;44.00
80701;DHT22;71609;42.630;23.380;2023-07-20T10:05:02;32.40;43.90
80701;DHT22;71609;42.630;23.380;2023-07-20T10:07:36;32.40;44.00
80701;DHT22;71609;42.630;23.380;2023-07-20T10:10:04;32.30;44.00
80701;DHT22;71609;42.630;23.380;2023-07-20T10:12:31;32.30;44.10
80701;DHT22;71609;42.630;23.380;2023-07-20T10:17:30;32.20;44.40
80701;DHT22;71609;42.630;23.380;2023-07-20T10:19:57;32.10;44.50
80701;DHT22;71609;42.630;23.380;2023-07-20T10:22:26;32.10;44.70
80701;DHT22;71609;42.630;23.380;2023-07-20T10:24:53;32.10;44.80
80701;DHT22;71609;42.630;23.380;2023-07-20T10:27:20;32.00;44.90
80701;DHT22;71609;42.630;23.380;2023-07-20T10:29:47;32.00;44.90
80701;DHT22;71609;42.630;23.380;2023-07-20T10:32:13;32.00;45.10
80701;DHT22;71609;42.630;23.380;2023-07-20T10:34:39;32.00;45.20
80701;DHT22;71609;42.630;23.380;2023-07-20T10:37:05;31.90;45.20
80701;DHT22;71609;42.630;23.380;2023-07-20T10:39:34;31.90;45.30
80701;DHT22;71609;42.630;23.380;2023-07-20T10:42:06;31.90;45.30
80701;DHT22;71609;42.630;23.380;2023-07-20T10:44:32;31.80;45.30
80701;DHT22;71609;42.630;23.380;2023-07-20T10:47:02;31.80;45.30
80701;DHT22;71609;42.630;23.380;2023-07-20T10:49:28;31.90;45.50
80701;DHT22;71609;42.630;23.380;2023-07-20T10:51:58;31.80;46.50
80701;DHT22;71609;42.630;23.380;2023-07-20T10:56:52;31.80;45.60
80701;DHT22;71609;42.630;23.380;2023-07-20T10:59:40;31.70;45.60
80701;DHT22;71609;42.630;23.380;2023-07-20T11:02:07;31.70;45.70
80701;DHT22;71609;42.630;23.380;2023-07-20T11:04:44;31.60;45.90
80701;DHT22;71609;42.630;23.380;2023-07-20T11:07:10;31.60;45.90
80701;DHT22;71609;42.630;23.380;2023-07-20T11:09:38;31.60;46.00
80701;DHT22;71609;42.630;23.380;2023-07-20T11:12:17;31.50;46.10
80701;DHT22;71609;42.630;23.380;2023-07-20T11:15:03;31.50;46.20
80701;DHT22;71609;42.630;23.380;2023-07-20T11:17:30;31.50;46.30
80701;DHT22;71609;42.630;23.380;2023-07-20T11:19:57;31.50;46.30
80701;DHT22;71609;42.630;23.380;2023-07-20T11:22:24;31.40;46.30
80701;DHT22;71609;42.630;23.380;2023-07-20T11:24:49;31.40;46.40
80701;DHT22;71609;42.630;23.380;2023-07-20T11:27:16;31.40;46.40
80701;DHT22;71609;42.630;23.380;2023-07-20T11:29:41;31.40;46.40
80701;DHT22;71609;42.630;23.380;2023-07-20T11:32:07;31.40;46.50
80701;DHT22;71609;42.630;23.380;2023-07-20T11:34:34;31.40;46.50
80701;DHT22;71609;42.630;23.380;2023-07-20T11:37:01;31.40;46.60
80701;DHT22;71609;42.630;23.380;2023-07-20T11:39:29;31.40;46.70
80701;DHT22;71609;42.630;23.380;2023-07-20T11:41:55;31.40;46.70
80701;DHT22;71609;42.630;23.380;2023-07-20T11:44:28;31.40;46.70
80701;DHT22;71609;42.630;23.380;2023-07-20T11:47:07;31.40;46.70
80701;DHT22;71609;42.630;23.380;2023-07-20T11:49:40;31.40;46.80
80701;DHT22;71609;42.630;23.380;2023-07-20T11:52:07;31.40;46.80
80701;DHT22;71609;42.630;23.380;2023-07-20T11:54:34;31.40;46.80
80701;DHT22;71609;42.630;23.380;2023-07-20T11:57:01;31.40;46.90
80701;DHT22;71609;42.630;23.380;2023-07-20T11:59:27;31.30;46.80
80701;DHT22;71609;42.630;23.380;2023-07-20T12:01:53;31.30;46.80
80701;DHT22;71609;42.630;23.380;2023-07-20T12:04:18;31.30;46.90
80701;DHT22;71609;42.630;23.380;2023-07-20T12:06:45;31.30;48.00
80701;DHT22;71609;42.630;23.380;2023-07-20T12:09:16;31.30;47.10
80701;DHT22;71609;42.630;23.380;2023-07-20T12:11:43;31.30;47.10
80701;DHT22;71609;42.630;23.380;2023-07-20T12:14:10;31.30;47.10
80701;DHT22;71609;42.630;23.380;2023-07-20T12:16:37;31.20;47.10
80701;DHT22;71609;42.630;23.380;2023-07-20T12:19:10;31.30;47.20
80701;DHT22;71609;42.630;23.380;2023-07-20T12:21:38;31.30;47.20
80701;DHT22;71609;42.630;23.380;2023-07-20T12:24:04;31.20;47.20
80701;DHT22;71609;42.630;23.380;2023-07-20T12:26:31;31.20;47.20
80701;DHT22;71609;42.630;23.380;2023-07-20T12:28:57;31.20;47.20
80701;DHT22;71609;42.630;23.380;2023-07-20T12:31:25;31.20;47.30
80701;DHT22;71609;42.630;23.380;2023-07-20T12:33:52;31.20;47.40
80701;DHT22;71609;42.630;23.380;2023-07-20T12:36:18;31.20;47.50
80701;DHT22;71609;42.630;23.380;2023-07-20T12:38:44;31.20;47.50
80701;DHT22;71609;42.630;23.380;2023-07-20T12:41:11;31.20;47.50
80701;DHT22;71609;42.630;23.380;2023-07-20T12:43:46;31.20;47.50
80701;DHT22;71609;42.630;23.380;2023-07-20T12:46:12;31.20;47.50
80701;DHT22;71609;42.630;23.380;2023-07-20T12:48:38;31.10;47.50
80701;DHT22;71609;42.630;23.380;2023-07-20T12:51:07;31.10;47.50
80701;DHT22;71609;42.630;23.380;2023-07-20T12:53:33;31.10;47.60
80701;DHT22;71609;42.630;23.380;2023-07-20T12:55:59;31.10;47.50
80701;DHT22;71609;42.630;23.380;2023-07-20T12:58:25;31.10;47.50
80701;DHT22;71609;42.630;23.380;2023-07-20T13:00:51;31.10;47.60
80701;DHT22;71609;42.630;23.380;2023-07-20T13:03:16;31.10;47.50
80701;DHT22;71609;42.630;23.380;2023-07-20T13:05:45;31.10;47.40
80701;DHT22;71609;42.630;23.380;2023-07-20T13:08:10;31.00;47.30
80701;DHT22;71609;42.630;23.380;2023-07-20T13:10:37;31.00;47.30
80701;DHT22;71609;42.630;23.380;2023-07-20T13:13:04;31.00;47.40
80701;DHT22;71609;42.630;23.380;2023-07-20T13:15:31;31.00;47.50
80701;DHT22;71609;42.630;23.380;2023-07-20T13:17:58;31.00;47.70
80701;DHT22;71609;42.630;23.380;2023-07-20T13:20:25;31.00;47.70
80701;DHT22;71609;42.630;23.380;2023-07-20T13:22:51;31.00;47.60
80701;DHT22;71609;42.630;23.380;2023-07-20T13:25:17;31.00;47.60
80701;DHT22;71609;42.630;23.380;2023-07-20T13:27:42;31.00;47.60
80701;DHT22;71609;42.630;23.380;2023-07-20T13:30:08;31.00;47.60
80701;DHT22;71609;42.630;23.380;2023-07-20T13:32:39;31.00;47.70
80701;DHT22;71609;42.630;23.380;2023-07-20T13:35:05;30.90;47.70
80701;DHT22;71609;42.630;23.380;2023-07-20T13:37:30;30.90;47.70
80701;DHT22;71609;42.630;23.380;2023-07-20T13:39:56;30.90;47.60
80701;DHT22;71609;42.630;23.380;2023-07-20T13:42:22;30.90;47.60
80701;DHT22;71609;42.630;23.380;2023-07-20T13:44:48;30.90;47.70
80701;DHT22;71609;42.630;23.380;2023-07-20T13:47:14;30.90;47.80
80701;DHT22;71609;42.630;23.380;2023-07-20T13:49:40;30.90;47.90
80701;DHT22;71609;42.630;23.380;2023-07-20T13:52:06;30.90;47.90
80701;DHT22;71609;42.630;23.380;2023-07-20T13:54:32;30.90;48.00
80701;DHT22;71609;42.630;23.380;2023-07-20T13:56:57;30.90;47.90
80701;DHT22;71609;42.630;23.380;2023-07-20T13:59:23;30.90;48.10
80701;DHT22;71609;42.630;23.380;2023-07-20T14:01:49;30.90;48.00
80701;DHT22;71609;42.630;23.380;2023-07-20T14:04:15;30.90;48.00
80701;DHT22;71609;42.630;23.380;2023-07-20T14:06:40;30.90;48.00
80701;DHT22;71609;42.630;23.380;2023-07-20T14:09:06;30.90;48.10
80701;DHT22;71609;42.630;23.380;2023-07-20T14:11:32;30.90;48.20
80701;DHT22;71609;42.630;23.380;2023-07-20T14:13:58;30.90;48.20
80701;DHT22;71609;42.630;23.380;2023-07-20T14:16:24;30.80;48.20
80701;DHT22;71609;42.630;23.380;2023-07-20T14:18:50;30.80;48.30
80701;DHT22;71609;42.630;23.380;2023-07-20T14:21:20;30.80;48.20
80701;DHT22;71609;42.630;23.380;2023-07-20T14:23:50;30.80;48.30
80701;DHT22;71609;42.630;23.380;2023-07-20T14:26:16;30.80;48.30
80701;DHT22;71609;42.630;23.380;2023-07-20T14:28:42;30.80;48.40
80701;DHT22;71609;42.630;23.380;2023-07-20T14:31:07;30.80;48.40
80701;DHT22;71609;42.630;23.380;2023-07-20T14:33:33;30.80;48.50
80701;DHT22;71609;42.630;23.380;2023-07-20T14:35:59;30.80;48.40
80701;DHT22;71609;42.630;23.380;2023-07-20T14:38:33;30.80;49.00
80701;DHT22;71609;42.630;23.380;2023-07-20T14:40:59;30.80;48.50
80701;DHT22;71609;42.630;23.380;2023-07-20T14:43:24;30.70;48.50
80701;DHT22;71609;42.630;23.380;2023-07-20T14:45:50;30.70;48.50
80701;DHT22;71609;42.630;23.380;2023-07-20T14:48:16;30.70;48.50
80701;DHT22;71609;42.630;23.380;2023-07-20T14:50:42;30.70;48.50
80701;DHT22;71609;42.630;23.380;2023-07-20T14:53:11;30.70;48.60
80701;DHT22;71609;42.630;23.380;2023-07-20T14:55:36;30.70;48.70
80701;DHT22;71609;42.630;23.380;2023-07-20T14:58:02;30.70;48.70
80701;DHT22;71609;42.630;23.380;2023-07-20T15:00:28;30.70;48.90
80701;DHT22;71609;42.630;23.380;2023-07-20T15:02:55;30.70;48.90
80701;DHT22;71609;42.630;23.380;2023-07-20T15:05:24;30.70;49.00
80701;DHT22;71609;42.630;23.380;2023-07-20T15:07:52;30.70;49.00
80701;DHT22;71609;42.630;23.380;2023-07-20T15:10:18;30.60;49.00
80701;DHT22;71609;42.630;23.380;2023-07-20T15:12:44;30.60;48.90
80701;DHT22;71609;42.630;23.380;2023-07-20T15:15:12;30.60;49.00
80701;DHT22;71609;42.630;23.380;2023-07-20T15:17:39;30.60;49.20
80701;DHT22;71609;42.630;23.380;2023-07-20T15:20:07;30.60;49.00
80701;DHT22;71609;42.630;23.380;2023-07-20T15:22:34;30.60;49.00
80701;DHT22;71609;42.630;23.380;2023-07-20T15:25:03;30.60;49.00
80701;DHT22;71609;42.630;23.380;2023-07-20T15:27:29;30.60;49.00